sensor_id;sensor_type;location;lat;lon;timestamp;P1;durP1;ratioP1;P2;durP2;ratioP2
64907;SDS011;69061;52.236;5.188;2023-11-21T00:02:07;41.03;;;18.98;;
64907;SDS011;69061;52.236;5.188;2023-11-21T00:04:34;35.05;;;18.40;;
64907;SDS011;69061;52.236;5.188;2023-11-21T00:07:01;38.47;;;19.60;;
64907;SDS011;69061;52.236;5.188;2023-11-21T00:09:27;39.70;;;20.48;;
64907;SDS011;69061;52.236;5.188;2023-11-21T00:11:54;35.90;;;19.98;;
64907;SDS011;69061;52.236;5.188;2023-11-21T00:14:20;45.78;;;18.35;;
64907;SDS011;69061;52.236;5.188;2023-11-21T00:16:47;35.95;;;18.50;;
64907;SDS011;69061;52.236;5.188;2023-11-21T00:19:15;41.85;;;19.50;;
64907;SDS011;69061;52.236;5.188;2023-11-21T00:21:42;34.60;;;18.90;;
64907;SDS011;69061;52.236;5.188;2023-11-21T00:24:11;32.95;;;17.25;;
64907;SDS011;69061;52.236;5.188;2023-11-21T00:26:39;33.63;;;16.85;;
64907;SDS011;69061;52.236;5.188;2023-11-21T00:29:06;34.97;;;17.63;;
64907;SDS011;69061;52.236;5.188;2023-11-21T00:31:33;39.30;;;18.58;;
64907;SDS011;69061;52.236;5.188;2023-11-21T00:34:02;41.78;;;20.10;;
64907;SDS011;69061;52.236;5.188;2023-11-21T00:36:31;32.50;;;15.77;;
64907;SDS011;69061;52.236;5.188;2023-11-21T00:38:58;34.95;;;17.08;;
64907;SDS011;69061;52.236;5.188;2023-11-21T00:41:25;35.63;;;17.63;;
64907;SDS011;69061;52.236;5.188;2023-11-21T00:43:52;43.00;;;19.35;;
64907;SDS011;69061;52.236;5.188;2023-11-21T00:46:20;36.67;;;18.05;;
64907;SDS011;69061;52.236;5.188;2023-11-21T00:48:47;35.83;;;18.08;;
64907;SDS011;69061;52.236;5.188;2023-11-21T00:51:14;34.30;;;16.77;;
64907;SDS011;69061;52.236;5.188;2023-11-21T00:53:42;35.25;;;18.70;;
64907;SDS011;69061;52.236;5.188;2023-11-21T00:56:08;41.38;;;18.88;;
64907;SDS011;69061;52.236;5.188;2023-11-21T00:58:35;35.35;;;17.08;;
64907;SDS011;69061;52.236;5.188;2023-11-21T01:01:02;37.95;;;18.35;;
64907;SDS011;69061;52.236;5.188;2023-11-21T01:03:29;29.05;;;15.93;;
64907;SDS011;69061;52.236;5.188;2023-11-21T01:05:56;37.90;;;18.08;;
64907;SDS011;69061;52.236;5.188;2023-11-21T01:08:24;36.38;;;16.70;;
64907;SDS011;69061;52.236;5.188;2023-11-21T01:10:52;39.40;;;18.60;;
64907;SDS011;69061;52.236;5.188;2023-11-21T01:13:18;37.88;;;18.73;;
64907;SDS011;69061;52.236;5.188;2023-11-21T01:15:46;36.80;;;18.15;;
64907;SDS011;69061;52.236;5.188;2023-11-21T01:18:12;32.40;;;16.23;;
64907;SDS011;69061;52.236;5.188;2023-11-21T01:20:39;37.30;;;17.20;;
64907;SDS011;69061;52.236;5.188;2023-11-21T01:23:06;32.97;;;18.05;;
64907;SDS011;69061;52.236;5.188;2023-11-21T01:25:33;32.80;;;16.88;;
64907;SDS011;69061;52.236;5.188;2023-11-21T01:28:00;32.90;;;16.92;;
64907;SDS011;69061;52.236;5.188;2023-11-21T01:30:27;31.35;;;16.08;;
64907;SDS011;69061;52.236;5.188;2023-11-21T01:32:54;34.00;;;17.38;;
64907;SDS011;69061;52.236;5.188;2023-11-21T01:35:21;36.08;;;15.60;;
64907;SDS011;69061;52.236;5.188;2023-11-21T01:37:48;29.90;;;16.35;;
64907;SDS011;69061;52.236;5.188;2023-11-21T01:40:15;26.88;;;15.55;;
64907;SDS011;69061;52.236;5.188;2023-11-21T01:42:42;35.20;;;16.63;;
64907;SDS011;69061;52.236;5.188;2023-11-21T01:45:11;29.52;;;15.77;;
64907;SDS011;69061;52.236;5.188;2023-11-21T01:47:38;42.13;;;17.02;;
64907;SDS011;69061;52.236;5.188;2023-11-21T01:50:06;30.55;;;15.77;;
64907;SDS011;69061;52.236;5.188;2023-11-21T01:52:34;40.60;;;18.08;;
64907;SDS011;69061;52.236;5.188;2023-11-21T01:55:02;28.80;;;14.35;;
64907;SDS011;69061;52.236;5.188;2023-11-21T01:57:29;29.48;;;14.13;;
64907;SDS011;69061;52.236;5.188;2023-11-21T01:59:56;31.85;;;16.00;;
64907;SDS011;69061;52.236;5.188;2023-11-21T02:02:37;24.27;;;14.00;;
64907;SDS011;69061;52.236;5.188;2023-11-21T02:05:04;36.92;;;16.20;;
64907;SDS011;69061;52.236;5.188;2023-11-21T02:07:31;34.42;;;17.08;;
64907;SDS011;69061;52.236;5.188;2023-11-21T02:10:00;29.80;;;14.05;;
64907;SDS011;69061;52.236;5.188;2023-11-21T02:12:26;28.83;;;15.90;;
64907;SDS011;69061;52.236;5.188;2023-11-21T02:14:53;28.60;;;15.27;;
64907;SDS011;69061;52.236;5.188;2023-11-21T02:17:20;30.58;;;14.20;;
64907;SDS011;69061;52.236;5.188;2023-11-21T02:19:49;29.13;;;14.07;;
64907;SDS011;69061;52.236;5.188;2023-11-21T02:22:17;26.95;;;14.02;;
64907;SDS011;69061;52.236;5.188;2023-11-21T02:24:47;36.70;;;15.20;;
64907;SDS011;69061;52.236;5.188;2023-11-21T02:27:13;30.42;;;15.15;;
64907;SDS011;69061;52.236;5.188;2023-11-21T02:29:42;35.97;;;15.35;;
64907;SDS011;69061;52.236;5.188;2023-11-21T02:32:09;28.85;;;14.70;;
64907;SDS011;69061;52.236;5.188;2023-11-21T02:34:36;24.88;;;12.65;;
64907;SDS011;69061;52.236;5.188;2023-11-21T02:37:03;28.80;;;13.30;;
64907;SDS011;69061;52.236;5.188;2023-11-21T02:39:30;30.13;;;13.60;;
64907;SDS011;69061;52.236;5.188;2023-11-21T02:41:59;31.27;;;15.38;;
64907;SDS011;69061;52.236;5.188;2023-11-21T02:44:25;24.20;;;11.88;;
64907;SDS011;69061;52.236;5.188;2023-11-21T02:46:52;28.55;;;14.25;;
64907;SDS011;69061;52.236;5.188;2023-11-21T02:49:19;29.38;;;14.07;;
64907;SDS011;69061;52.236;5.188;2023-11-21T02:51:45;30.98;;;14.23;;
64907;SDS011;69061;52.236;5.188;2023-11-21T02:54:12;24.00;;;11.85;;
64907;SDS011;69061;52.236;5.188;2023-11-21T02:56:39;30.83;;;14.43;;
64907;SDS011;69061;52.236;5.188;2023-11-21T02:59:07;28.92;;;13.20;;
64907;SDS011;69061;52.236;5.188;2023-11-21T03:01:34;22.48;;;12.57;;
64907;SDS011;69061;52.236;5.188;2023-11-21T03:04:00;28.38;;;15.07;;
64907;SDS011;69061;52.236;5.188;2023-11-21T03:06:27;29.77;;;12.68;;
64907;SDS011;69061;52.236;5.188;2023-11-21T03:08:53;28.70;;;13.20;;
64907;SDS011;69061;52.236;5.188;2023-11-21T03:11:20;26.38;;;14.15;;
64907;SDS011;69061;52.236;5.188;2023-11-21T03:13:47;29.38;;;13.55;;
64907;SDS011;69061;52.236;5.188;2023-11-21T03:16:15;22.55;;;12.70;;
64907;SDS011;69061;52.236;5.188;2023-11-21T03:18:44;21.60;;;11.85;;
64907;SDS011;69061;52.236;5.188;2023-11-21T03:21:11;24.77;;;12.88;;
64907;SDS011;69061;52.236;5.188;2023-11-21T03:23:38;25.73;;;11.57;;
64907;SDS011;69061;52.236;5.188;2023-11-21T03:26:06;23.48;;;12.63;;
64907;SDS011;69061;52.236;5.188;2023-11-21T03:28:33;22.10;;;12.95;;
64907;SDS011;69061;52.236;5.188;2023-11-21T03:31:00;21.80;;;12.15;;
64907;SDS011;69061;52.236;5.188;2023-11-21T03:33:28;26.20;;;11.98;;
64907;SDS011;69061;52.236;5.188;2023-11-21T03:35:54;27.73;;;12.05;;
64907;SDS011;69061;52.236;5.188;2023-11-21T03:38:21;24.58;;;11.25;;
64907;SDS011;69061;52.236;5.188;2023-11-21T03:40:48;25.05;;;12.23;;
64907;SDS011;69061;52.236;5.188;2023-11-21T03:43:15;22.02;;;12.38;;
64907;SDS011;69061;52.236;5.188;2023-11-21T03:45:42;26.95;;;12.07;;
64907;SDS011;69061;52.236;5.188;2023-11-21T03:48:09;25.33;;;12.45;;
64907;SDS011;69061;52.236;5.188;2023-11-21T03:50:39;30.15;;;12.50;;
64907;SDS011;69061;52.236;5.188;2023-11-21T03:53:06;26.90;;;11.00;;
64907;SDS011;69061;52.236;5.188;2023-11-21T03:55:32;23.77;;;12.27;;
64907;SDS011;69061;52.236;5.188;2023-11-21T03:57:59;29.70;;;12.95;;
64907;SDS011;69061;52.236;5.188;2023-11-21T04:00:26;21.70;;;10.80;;
64907;SDS011;69061;52.236;5.188;2023-11-21T04:02:53;32.70;;;12.63;;
64907;SDS011;69061;52.236;5.188;2023-11-21T04:05:20;26.38;;;12.50;;
64907;SDS011;69061;52.236;5.188;2023-11-21T04:07:50;21.42;;;10.40;;
64907;SDS011;69061;52.236;5.188;2023-11-21T04:10:17;26.88;;;12.07;;
64907;SDS011;69061;52.236;5.188;2023-11-21T04:12:44;27.83;;;12.18;;
64907;SDS011;69061;52.236;5.188;2023-11-21T04:15:11;22.88;;;12.60;;
64907;SDS011;69061;52.236;5.188;2023-11-21T04:17:39;31.27;;;13.55;;
64907;SDS011;69061;52.236;5.188;2023-11-21T04:20:06;28.83;;;13.57;;
64907;SDS011;69061;52.236;5.188;2023-11-21T04:22:36;30.27;;;12.25;;
64907;SDS011;69061;52.236;5.188;2023-11-21T04:25:06;25.80;;;11.40;;
64907;SDS011;69061;52.236;5.188;2023-11-21T04:27:34;21.08;;;11.63;;
64907;SDS011;69061;52.236;5.188;2023-11-21T04:30:01;25.67;;;13.70;;
64907;SDS011;69061;52.236;5.188;2023-11-21T04:32:27;29.92;;;13.35;;
64907;SDS011;69061;52.236;5.188;2023-11-21T04:34:54;29.65;;;13.45;;
64907;SDS011;69061;52.236;5.188;2023-11-21T04:37:21;24.25;;;12.95;;
64907;SDS011;69061;52.236;5.188;2023-11-21T04:39:48;23.85;;;12.10;;
64907;SDS011;69061;52.236;5.188;2023-11-21T04:42:16;24.92;;;11.02;;
64907;SDS011;69061;52.236;5.188;2023-11-21T04:44:42;31.02;;;13.10;;
64907;SDS011;69061;52.236;5.188;2023-11-21T04:47:11;24.70;;;13.07;;
64907;SDS011;69061;52.236;5.188;2023-11-21T04:49:37;30.10;;;12.48;;
64907;SDS011;69061;52.236;5.188;2023-11-21T04:52:04;28.98;;;11.85;;
64907;SDS011;69061;52.236;5.188;2023-11-21T04:54:32;25.00;;;11.57;;
64907;SDS011;69061;52.236;5.188;2023-11-21T04:56:59;25.25;;;12.18;;
64907;SDS011;69061;52.236;5.188;2023-11-21T04:59:27;33.60;;;13.27;;
64907;SDS011;69061;52.236;5.188;2023-11-21T05:01:54;26.13;;;12.60;;
64907;SDS011;69061;52.236;5.188;2023-11-21T05:04:21;26.65;;;12.93;;
64907;SDS011;69061;52.236;5.188;2023-11-21T05:06:47;25.45;;;13.32;;
64907;SDS011;69061;52.236;5.188;2023-11-21T05:09:14;26.92;;;12.00;;
64907;SDS011;69061;52.236;5.188;2023-11-21T05:11:42;23.83;;;12.88;;
64907;SDS011;69061;52.236;5.188;2023-11-21T05:14:08;31.05;;;14.13;;
64907;SDS011;69061;52.236;5.188;2023-11-21T05:16:37;27.48;;;13.00;;
64907;SDS011;69061;52.236;5.188;2023-11-21T05:19:03;28.30;;;12.85;;
64907;SDS011;69061;52.236;5.188;2023-11-21T05:21:31;31.80;;;13.23;;
64907;SDS011;69061;52.236;5.188;2023-11-21T05:23:58;28.00;;;12.52;;
64907;SDS011;69061;52.236;5.188;2023-11-21T05:26:24;22.42;;;12.02;;
64907;SDS011;69061;52.236;5.188;2023-11-21T05:28:51;22.95;;;12.23;;
64907;SDS011;69061;52.236;5.188;2023-11-21T05:31:18;28.27;;;14.30;;
64907;SDS011;69061;52.236;5.188;2023-11-21T05:33:45;31.77;;;14.25;;
64907;SDS011;69061;52.236;5.188;2023-11-21T05:36:13;22.83;;;11.73;;
64907;SDS011;69061;52.236;5.188;2023-11-21T05:38:39;28.13;;;13.52;;
64907;SDS011;69061;52.236;5.188;2023-11-21T05:41:06;28.85;;;13.38;;
64907;SDS011;69061;52.236;5.188;2023-11-21T05:43:36;25.83;;;12.68;;
64907;SDS011;69061;52.236;5.188;2023-11-21T05:46:02;26.05;;;13.77;;
64907;SDS011;69061;52.236;5.188;2023-11-21T05:48:29;27.85;;;14.07;;
64907;SDS011;69061;52.236;5.188;2023-11-21T05:50:58;25.25;;;12.57;;
64907;SDS011;69061;52.236;5.188;2023-11-21T05:53:24;23.20;;;12.82;;
64907;SDS011;69061;52.236;5.188;2023-11-21T05:55:51;28.02;;;12.05;;
64907;SDS011;69061;52.236;5.188;2023-11-21T05:58:18;29.40;;;13.60;;
64907;SDS011;69061;52.236;5.188;2023-11-21T06:00:44;22.25;;;13.45;;
64907;SDS011;69061;52.236;5.188;2023-11-21T06:03:11;27.17;;;13.10;;
64907;SDS011;69061;52.236;5.188;2023-11-21T06:05:37;24.50;;;11.80;;
64907;SDS011;69061;52.236;5.188;2023-11-21T06:08:05;25.27;;;12.48;;
64907;SDS011;69061;52.236;5.188;2023-11-21T06:10:32;29.20;;;12.43;;
64907;SDS011;69061;52.236;5.188;2023-11-21T06:12:59;24.90;;;10.57;;
64907;SDS011;69061;52.236;5.188;2023-11-21T06:15:25;23.77;;;11.38;;
64907;SDS011;69061;52.236;5.188;2023-11-21T06:17:52;20.83;;;9.27;;
64907;SDS011;69061;52.236;5.188;2023-11-21T06:20:19;18.10;;;8.48;;
64907;SDS011;69061;52.236;5.188;2023-11-21T06:22:48;29.85;;;12.50;;
64907;SDS011;69061;52.236;5.188;2023-11-21T06:25:17;19.08;;;9.88;;
64907;SDS011;69061;52.236;5.188;2023-11-21T06:27:44;22.48;;;10.35;;
64907;SDS011;69061;52.236;5.188;2023-11-21T06:30:12;15.63;;;8.05;;
64907;SDS011;69061;52.236;5.188;2023-11-21T06:32:40;17.27;;;9.02;;
64907;SDS011;69061;52.236;5.188;2023-11-21T06:35:10;18.35;;;8.52;;
64907;SDS011;69061;52.236;5.188;2023-11-21T06:37:38;18.55;;;8.95;;
64907;SDS011;69061;52.236;5.188;2023-11-21T06:40:05;14.32;;;7.40;;
64907;SDS011;69061;52.236;5.188;2023-11-21T06:42:34;21.52;;;7.60;;
64907;SDS011;69061;52.236;5.188;2023-11-21T06:45:02;13.13;;;6.95;;
64907;SDS011;69061;52.236;5.188;2023-11-21T06:47:29;15.48;;;7.25;;
64907;SDS011;69061;52.236;5.188;2023-11-21T06:49:56;18.75;;;7.25;;
64907;SDS011;69061;52.236;5.188;2023-11-21T06:52:22;19.83;;;7.03;;
64907;SDS011;69061;52.236;5.188;2023-11-21T06:54:49;14.10;;;7.18;;
64907;SDS011;69061;52.236;5.188;2023-11-21T06:57:16;16.02;;;8.02;;
64907;SDS011;69061;52.236;5.188;2023-11-21T06:59:44;15.48;;;7.07;;
64907;SDS011;69061;52.236;5.188;2023-11-21T07:02:10;18.63;;;7.35;;
64907;SDS011;69061;52.236;5.188;2023-11-21T07:04:37;17.38;;;6.72;;
64907;SDS011;69061;52.236;5.188;2023-11-21T07:07:03;12.70;;;6.93;;
64907;SDS011;69061;52.236;5.188;2023-11-21T07:09:32;12.77;;;6.50;;
64907;SDS011;69061;52.236;5.188;2023-11-21T07:11:58;12.48;;;5.68;;
64907;SDS011;69061;52.236;5.188;2023-11-21T07:14:25;11.27;;;6.13;;
64907;SDS011;69061;52.236;5.188;2023-11-21T07:16:54;13.13;;;6.43;;
64907;SDS011;69061;52.236;5.188;2023-11-21T07:19:21;20.75;;;9.30;;
64907;SDS011;69061;52.236;5.188;2023-11-21T07:21:48;13.30;;;6.68;;
64907;SDS011;69061;52.236;5.188;2023-11-21T07:24:16;13.23;;;6.15;;
64907;SDS011;69061;52.236;5.188;2023-11-21T07:26:42;9.98;;;5.40;;
64907;SDS011;69061;52.236;5.188;2023-11-21T07:29:09;13.50;;;6.45;;
64907;SDS011;69061;52.236;5.188;2023-11-21T07:31:36;21.27;;;6.80;;
64907;SDS011;69061;52.236;5.188;2023-11-21T07:34:05;10.98;;;5.90;;
64907;SDS011;69061;52.236;5.188;2023-11-21T07:36:33;12.38;;;6.57;;
64907;SDS011;69061;52.236;5.188;2023-11-21T07:39:08;12.88;;;6.50;;
64907;SDS011;69061;52.236;5.188;2023-11-21T07:41:43;14.85;;;6.03;;
64907;SDS011;69061;52.236;5.188;2023-11-21T07:44:14;15.55;;;6.88;;
64907;SDS011;69061;52.236;5.188;2023-11-21T07:46:44;15.13;;;8.05;;
64907;SDS011;69061;52.236;5.188;2023-11-21T07:49:18;13.18;;;7.30;;
64907;SDS011;69061;52.236;5.188;2023-11-21T07:51:46;13.23;;;6.90;;
64907;SDS011;69061;52.236;5.188;2023-11-21T07:54:12;17.98;;;6.57;;
64907;SDS011;69061;52.236;5.188;2023-11-21T07:56:39;16.48;;;7.38;;
64907;SDS011;69061;52.236;5.188;2023-11-21T07:59:06;18.70;;;7.30;;
64907;SDS011;69061;52.236;5.188;2023-11-21T08:01:32;13.73;;;7.80;;
64907;SDS011;69061;52.236;5.188;2023-11-21T08:03:59;12.38;;;6.28;;
64907;SDS011;69061;52.236;5.188;2023-11-21T08:06:30;11.38;;;6.68;;
64907;SDS011;69061;52.236;5.188;2023-11-21T08:08:57;14.18;;;7.95;;
64907;SDS011;69061;52.236;5.188;2023-11-21T08:11:24;17.92;;;8.15;;
64907;SDS011;69061;52.236;5.188;2023-11-21T08:13:51;16.60;;;8.32;;
64907;SDS011;69061;52.236;5.188;2023-11-21T08:16:18;16.35;;;7.22;;
64907;SDS011;69061;52.236;5.188;2023-11-21T08:18:45;18.75;;;8.25;;
64907;SDS011;69061;52.236;5.188;2023-11-21T08:21:12;14.77;;;7.72;;
64907;SDS011;69061;52.236;5.188;2023-11-21T08:23:40;13.93;;;6.85;;
64907;SDS011;69061;52.236;5.188;2023-11-21T08:26:06;15.73;;;7.20;;
64907;SDS011;69061;52.236;5.188;2023-11-21T08:28:33;10.63;;;6.53;;
64907;SDS011;69061;52.236;5.188;2023-11-21T08:31:00;16.33;;;8.10;;
64907;SDS011;69061;52.236;5.188;2023-11-21T08:33:27;12.55;;;6.45;;
64907;SDS011;69061;52.236;5.188;2023-11-21T08:35:53;14.15;;;8.10;;
64907;SDS011;69061;52.236;5.188;2023-11-21T08:38:20;15.07;;;7.13;;
64907;SDS011;69061;52.236;5.188;2023-11-21T08:40:49;14.43;;;6.72;;
64907;SDS011;69061;52.236;5.188;2023-11-21T08:43:15;12.82;;;6.45;;
64907;SDS011;69061;52.236;5.188;2023-11-21T08:45:44;12.15;;;5.50;;
64907;SDS011;69061;52.236;5.188;2023-11-21T08:48:12;14.27;;;5.70;;
64907;SDS011;69061;52.236;5.188;2023-11-21T08:50:38;10.52;;;5.10;;
64907;SDS011;69061;52.236;5.188;2023-11-21T08:53:05;11.27;;;5.93;;
64907;SDS011;69061;52.236;5.188;2023-11-21T08:55:32;10.40;;;5.80;;
64907;SDS011;69061;52.236;5.188;2023-11-21T08:58:03;11.38;;;5.70;;
64907;SDS011;69061;52.236;5.188;2023-11-21T09:00:31;9.85;;;6.00;;
64907;SDS011;69061;52.236;5.188;2023-11-21T09:02:58;11.02;;;5.63;;
64907;SDS011;69061;52.236;5.188;2023-11-21T09:05:27;9.80;;;5.07;;
64907;SDS011;69061;52.236;5.188;2023-11-21T09:07:53;10.82;;;6.05;;
64907;SDS011;69061;52.236;5.188;2023-11-21T09:10:20;10.00;;;5.93;;
64907;SDS011;69061;52.236;5.188;2023-11-21T09:12:46;8.27;;;5.05;;
64907;SDS011;69061;52.236;5.188;2023-11-21T09:15:14;9.52;;;4.82;;
64907;SDS011;69061;52.236;5.188;2023-11-21T09:17:41;8.93;;;4.95;;
64907;SDS011;69061;52.236;5.188;2023-11-21T09:20:09;13.75;;;5.85;;
64907;SDS011;69061;52.236;5.188;2023-11-21T09:22:36;9.88;;;6.07;;
64907;SDS011;69061;52.236;5.188;2023-11-21T09:25:03;8.13;;;5.00;;
64907;SDS011;69061;52.236;5.188;2023-11-21T09:27:31;11.13;;;5.28;;
64907;SDS011;69061;52.236;5.188;2023-11-21T09:29:57;9.20;;;5.13;;
64907;SDS011;69061;52.236;5.188;2023-11-21T09:32:25;9.68;;;5.40;;
64907;SDS011;69061;52.236;5.188;2023-11-21T09:34:52;11.18;;;6.43;;
64907;SDS011;69061;52.236;5.188;2023-11-21T09:37:23;12.27;;;5.03;;
64907;SDS011;69061;52.236;5.188;2023-11-21T09:39:53;9.98;;;6.05;;
64907;SDS011;69061;52.236;5.188;2023-11-21T09:42:22;13.05;;;5.63;;
64907;SDS011;69061;52.236;5.188;2023-11-21T09:44:54;9.77;;;5.22;;
64907;SDS011;69061;52.236;5.188;2023-11-21T09:47:31;8.13;;;5.40;;
64907;SDS011;69061;52.236;5.188;2023-11-21T09:50:02;9.00;;;5.90;;
64907;SDS011;69061;52.236;5.188;2023-11-21T09:52:28;9.10;;;4.60;;
64907;SDS011;69061;52.236;5.188;2023-11-21T09:54:57;10.60;;;6.53;;
64907;SDS011;69061;52.236;5.188;2023-11-21T09:57:25;11.57;;;5.55;;
64907;SDS011;69061;52.236;5.188;2023-11-21T09:59:54;10.05;;;4.93;;
64907;SDS011;69061;52.236;5.188;2023-11-21T10:02:23;12.00;;;6.30;;
64907;SDS011;69061;52.236;5.188;2023-11-21T10:04:55;10.45;;;5.28;;
64907;SDS011;69061;52.236;5.188;2023-11-21T10:07:21;12.32;;;6.60;;
64907;SDS011;69061;52.236;5.188;2023-11-21T10:09:49;11.27;;;6.57;;
64907;SDS011;69061;52.236;5.188;2023-11-21T10:12:17;11.13;;;5.05;;
64907;SDS011;69061;52.236;5.188;2023-11-21T10:14:45;10.90;;;5.80;;
64907;SDS011;69061;52.236;5.188;2023-11-21T10:17:15;11.35;;;6.32;;
64907;SDS011;69061;52.236;5.188;2023-11-21T10:19:44;10.13;;;6.35;;
64907;SDS011;69061;52.236;5.188;2023-11-21T10:22:15;12.80;;;6.50;;
64907;SDS011;69061;52.236;5.188;2023-11-21T10:24:42;12.60;;;7.20;;
64907;SDS011;69061;52.236;5.188;2023-11-21T10:27:09;11.07;;;6.18;;
64907;SDS011;69061;52.236;5.188;2023-11-21T10:29:36;14.45;;;6.68;;
64907;SDS011;69061;52.236;5.188;2023-11-21T10:32:02;19.42;;;8.63;;
64907;SDS011;69061;52.236;5.188;2023-11-21T10:34:30;23.25;;;8.27;;
64907;SDS011;69061;52.236;5.188;2023-11-21T10:36:57;12.10;;;6.57;;
64907;SDS011;69061;52.236;5.188;2023-11-21T10:39:27;14.18;;;6.45;;
64907;SDS011;69061;52.236;5.188;2023-11-21T10:41:56;12.55;;;7.18;;
64907;SDS011;69061;52.236;5.188;2023-11-21T10:44:22;16.88;;;8.45;;
64907;SDS011;69061;52.236;5.188;2023-11-21T10:46:51;11.75;;;7.00;;
64907;SDS011;69061;52.236;5.188;2023-11-21T10:49:21;16.40;;;8.65;;
64907;SDS011;69061;52.236;5.188;2023-11-21T10:51:51;20.42;;;10.63;;
64907;SDS011;69061;52.236;5.188;2023-11-21T10:54:19;21.63;;;11.10;;
64907;SDS011;69061;52.236;5.188;2023-11-21T10:56:49;15.38;;;7.80;;
64907;SDS011;69061;52.236;5.188;2023-11-21T10:59:19;21.40;;;10.93;;
64907;SDS011;69061;52.236;5.188;2023-11-21T11:01:46;21.08;;;10.00;;
64907;SDS011;69061;52.236;5.188;2023-11-21T11:04:16;21.35;;;9.25;;
64907;SDS011;69061;52.236;5.188;2023-11-21T11:06:45;18.33;;;8.40;;
64907;SDS011;69061;52.236;5.188;2023-11-21T11:09:16;21.92;;;11.65;;
64907;SDS011;69061;52.236;5.188;2023-11-21T11:11:44;21.83;;;10.75;;
64907;SDS011;69061;52.236;5.188;2023-11-21T11:14:13;26.30;;;10.77;;
64907;SDS011;69061;52.236;5.188;2023-11-21T11:16:40;25.88;;;11.38;;
64907;SDS011;69061;52.236;5.188;2023-11-21T11:19:08;23.55;;;12.02;;
64907;SDS011;69061;52.236;5.188;2023-11-21T11:21:37;18.08;;;8.60;;
64907;SDS011;69061;52.236;5.188;2023-11-21T11:24:17;18.08;;;8.73;;
64907;SDS011;69061;52.236;5.188;2023-11-21T11:27:06;25.23;;;11.65;;
64907;SDS011;69061;52.236;5.188;2023-11-21T11:29:46;24.02;;;10.98;;
64907;SDS011;69061;52.236;5.188;2023-11-21T11:32:25;19.38;;;10.32;;
64907;SDS011;69061;52.236;5.188;2023-11-21T11:35:07;16.55;;;8.45;;
64907;SDS011;69061;52.236;5.188;2023-11-21T11:37:41;18.83;;;8.75;;
64907;SDS011;69061;52.236;5.188;2023-11-21T11:40:10;23.45;;;8.30;;
64907;SDS011;69061;52.236;5.188;2023-11-21T11:42:37;19.55;;;9.95;;
64907;SDS011;69061;52.236;5.188;2023-11-21T11:45:09;15.43;;;7.53;;
64907;SDS011;69061;52.236;5.188;2023-11-21T11:47:44;20.08;;;9.60;;
64907;SDS011;69061;52.236;5.188;2023-11-21T11:50:13;15.02;;;8.27;;
64907;SDS011;69061;52.236;5.188;2023-11-21T11:52:42;15.68;;;7.32;;
64907;SDS011;69061;52.236;5.188;2023-11-21T11:55:10;14.70;;;7.43;;
64907;SDS011;69061;52.236;5.188;2023-11-21T11:57:38;12.30;;;6.10;;
64907;SDS011;69061;52.236;5.188;2023-11-21T12:03:02;12.63;;;6.55;;
64907;SDS011;69061;52.236;5.188;2023-11-21T12:05:30;11.35;;;6.35;;
64907;SDS011;69061;52.236;5.188;2023-11-21T12:08:03;20.02;;;7.20;;
64907;SDS011;69061;52.236;5.188;2023-11-21T12:10:32;12.60;;;6.60;;
64907;SDS011;69061;52.236;5.188;2023-11-21T12:13:00;14.95;;;7.50;;
64907;SDS011;69061;52.236;5.188;2023-11-21T12:15:29;15.77;;;6.95;;
64907;SDS011;69061;52.236;5.188;2023-11-21T12:17:57;18.05;;;9.48;;
64907;SDS011;69061;52.236;5.188;2023-11-21T12:20:25;14.73;;;7.47;;
64907;SDS011;69061;52.236;5.188;2023-11-21T12:22:53;19.23;;;9.32;;
64907;SDS011;69061;52.236;5.188;2023-11-21T12:25:21;16.13;;;7.90;;
64907;SDS011;69061;52.236;5.188;2023-11-21T12:27:49;14.32;;;7.95;;
64907;SDS011;69061;52.236;5.188;2023-11-21T12:30:17;22.67;;;9.40;;
64907;SDS011;69061;52.236;5.188;2023-11-21T12:32:49;18.88;;;10.02;;
64907;SDS011;69061;52.236;5.188;2023-11-21T12:35:17;18.40;;;8.43;;
64907;SDS011;69061;52.236;5.188;2023-11-21T12:37:44;19.20;;;9.40;;
64907;SDS011;69061;52.236;5.188;2023-11-21T12:40:12;20.05;;;8.70;;
64907;SDS011;69061;52.236;5.188;2023-11-21T12:42:40;16.60;;;8.35;;
64907;SDS011;69061;52.236;5.188;2023-11-21T12:45:09;17.92;;;7.40;;
64907;SDS011;69061;52.236;5.188;2023-11-21T12:47:41;18.15;;;9.82;;
64907;SDS011;69061;52.236;5.188;2023-11-21T12:50:10;20.92;;;9.48;;
64907;SDS011;69061;52.236;5.188;2023-11-21T12:52:40;24.08;;;10.82;;
64907;SDS011;69061;52.236;5.188;2023-11-21T12:55:09;27.27;;;11.60;;
64907;SDS011;69061;52.236;5.188;2023-11-21T12:57:41;18.23;;;8.60;;
64907;SDS011;69061;52.236;5.188;2023-11-21T13:00:09;25.10;;;11.73;;
64907;SDS011;69061;52.236;5.188;2023-11-21T13:02:41;29.17;;;12.50;;
64907;SDS011;69061;52.236;5.188;2023-11-21T13:05:09;21.67;;;11.55;;
64907;SDS011;69061;52.236;5.188;2023-11-21T13:07:46;28.60;;;12.07;;
64907;SDS011;69061;52.236;5.188;2023-11-21T13:10:14;24.88;;;12.73;;
64907;SDS011;69061;52.236;5.188;2023-11-21T13:12:42;18.60;;;9.40;;
64907;SDS011;69061;52.236;5.188;2023-11-21T13:15:13;21.05;;;10.23;;
64907;SDS011;69061;52.236;5.188;2023-11-21T13:17:41;21.55;;;10.80;;
64907;SDS011;69061;52.236;5.188;2023-11-21T13:20:08;21.15;;;10.02;;
64907;SDS011;69061;52.236;5.188;2023-11-21T13:22:44;22.08;;;12.07;;
64907;SDS011;69061;52.236;5.188;2023-11-21T13:25:12;20.42;;;10.68;;
64907;SDS011;69061;52.236;5.188;2023-11-21T13:27:43;20.90;;;10.35;;
64907;SDS011;69061;52.236;5.188;2023-11-21T13:30:11;21.08;;;10.52;;
64907;SDS011;69061;52.236;5.188;2023-11-21T13:32:41;22.63;;;12.40;;
64907;SDS011;69061;52.236;5.188;2023-11-21T13:35:10;19.85;;;9.98;;
64907;SDS011;69061;52.236;5.188;2023-11-21T13:37:46;22.65;;;11.88;;
64907;SDS011;69061;52.236;5.188;2023-11-21T13:40:16;19.58;;;9.32;;
64907;SDS011;69061;52.236;5.188;2023-11-21T13:42:47;21.35;;;10.10;;
64907;SDS011;69061;52.236;5.188;2023-11-21T13:45:18;19.98;;;9.02;;
64907;SDS011;69061;52.236;5.188;2023-11-21T13:47:45;20.70;;;10.48;;
64907;SDS011;69061;52.236;5.188;2023-11-21T13:50:13;23.80;;;11.45;;
64907;SDS011;69061;52.236;5.188;2023-11-21T13:52:47;15.52;;;8.70;;
64907;SDS011;69061;52.236;5.188;2023-11-21T13:55:14;21.20;;;10.25;;
64907;SDS011;69061;52.236;5.188;2023-11-21T13:57:41;20.40;;;9.95;;
64907;SDS011;69061;52.236;5.188;2023-11-21T14:00:11;20.67;;;9.93;;
64907;SDS011;69061;52.236;5.188;2023-11-21T14:02:58;24.80;;;10.60;;
64907;SDS011;69061;52.236;5.188;2023-11-21T14:05:28;23.27;;;12.40;;
64907;SDS011;69061;52.236;5.188;2023-11-21T14:07:56;19.15;;;9.52;;
64907;SDS011;69061;52.236;5.188;2023-11-21T14:10:28;20.52;;;10.80;;
64907;SDS011;69061;52.236;5.188;2023-11-21T14:13:02;21.75;;;10.98;;
64907;SDS011;69061;52.236;5.188;2023-11-21T14:15:28;18.63;;;10.50;;
64907;SDS011;69061;52.236;5.188;2023-11-21T14:17:56;24.98;;;12.43;;
64907;SDS011;69061;52.236;5.188;2023-11-21T14:20:23;19.02;;;8.73;;
64907;SDS011;69061;52.236;5.188;2023-11-21T14:22:51;16.90;;;9.45;;
64907;SDS011;69061;52.236;5.188;2023-11-21T14:25:17;17.83;;;9.63;;
64907;SDS011;69061;52.236;5.188;2023-11-21T14:27:44;14.68;;;8.65;;
64907;SDS011;69061;52.236;5.188;2023-11-21T14:30:11;19.73;;;10.95;;
64907;SDS011;69061;52.236;5.188;2023-11-21T14:32:38;19.17;;;10.50;;
64907;SDS011;69061;52.236;5.188;2023-11-21T14:35:05;18.17;;;10.18;;
64907;SDS011;69061;52.236;5.188;2023-11-21T14:37:34;20.63;;;10.40;;